createdAt,value
2017-10-08T00:02:22.894Z,3.07
2017-10-08T00:04:49.560Z,3.60
2017-10-08T00:07:16.201Z,3.20
2017-10-08T00:09:42.875Z,4.10
2017-10-08T00:12:09.516Z,4.17
2017-10-08T00:14:36.185Z,3.63
2017-10-08T00:17:02.885Z,3.17
2017-10-08T00:19:29.523Z,3.33
2017-10-08T00:21:56.435Z,3.13
2017-10-08T00:24:23.083Z,3.07
2017-10-08T00:33:32.504Z,3.27
2017-10-08T00:35:59.153Z,4.03
2017-10-08T00:38:25.795Z,3.80
2017-10-08T00:40:52.582Z,3.03
2017-10-08T00:43:19.219Z,3.50
2017-10-08T00:45:45.856Z,2.80
2017-10-08T00:48:12.519Z,3.00
2017-10-08T00:50:39.159Z,3.00
2017-10-08T00:53:05.823Z,2.60
2017-10-08T00:55:32.464Z,2.40
2017-10-08T00:57:59.123Z,1.90
2017-10-08T01:00:25.764Z,2.30
2017-10-08T01:02:52.425Z,2.60
2017-10-08T01:05:19.096Z,2.47
2017-10-08T01:07:45.757Z,1.50
2017-10-08T01:10:12.400Z,1.97
2017-10-08T01:12:39.067Z,2.10
2017-10-08T01:15:05.709Z,2.93
2017-10-08T01:17:32.512Z,1.97
2017-10-08T01:19:59.247Z,2.33
2017-10-08T01:22:25.884Z,1.60
2017-10-08T01:24:52.564Z,2.20
2017-10-08T01:27:19.231Z,1.70
2017-10-08T01:29:45.908Z,1.67
2017-10-08T01:32:12.566Z,2.07
2017-10-08T01:34:39.207Z,2.13
2017-10-08T01:37:05.877Z,1.77
2017-10-08T01:39:32.519Z,2.10
2017-10-08T01:41:59.411Z,2.00
2017-10-08T01:44:26.053Z,2.10
2017-10-08T01:46:52.704Z,2.00
2017-10-08T01:49:19.366Z,1.93
2017-10-08T01:51:46.032Z,2.50
2017-10-08T01:54:12.700Z,1.80
2017-10-08T01:56:39.474Z,1.93
2017-10-08T01:59:06.111Z,1.70
2017-10-08T02:01:32.754Z,2.03
2017-10-08T02:03:59.429Z,2.30
2017-10-08T02:06:26.075Z,2.20
2017-10-08T02:08:52.736Z,1.87
2017-10-08T02:11:19.399Z,2.10
2017-10-08T02:13:46.039Z,2.13
2017-10-08T02:16:13.103Z,1.60
2017-10-08T02:18:39.756Z,1.77
2017-10-08T02:21:06.400Z,1.73
2017-10-08T02:23:33.063Z,2.07
2017-10-08T02:25:59.747Z,2.40
2017-10-08T02:28:26.388Z,1.97
2017-10-08T02:30:53.037Z,2.30
2017-10-08T02:33:19.697Z,2.30
2017-10-08T02:35:46.339Z,1.57
2017-10-08T02:38:13.003Z,2.77
2017-10-08T02:40:39.648Z,2.90
2017-10-08T02:43:06.415Z,2.50
2017-10-08T02:45:33.049Z,1.97
2017-10-08T02:47:59.693Z,2.43
2017-10-08T02:50:26.381Z,3.37
2017-10-08T02:52:54.231Z,2.63
2017-10-08T02:55:21.230Z,2.27
2017-10-08T02:57:47.893Z,2.60
2017-10-08T03:00:14.568Z,2.40
2017-10-08T03:02:41.211Z,2.60
2017-10-08T03:05:07.852Z,3.10
2017-10-08T03:07:34.528Z,2.20
2017-10-08T03:10:01.171Z,3.10
2017-10-08T03:12:27.809Z,3.87
2017-10-08T03:14:54.630Z,2.37
2017-10-08T03:17:21.270Z,2.13
2017-10-08T03:19:47.905Z,2.37
2017-10-08T03:22:14.578Z,2.70
2017-10-08T03:24:41.216Z,2.33
2017-10-08T03:27:07.849Z,2.40
2017-10-08T03:29:34.523Z,1.80
2017-10-08T03:32:01.168Z,2.03
2017-10-08T03:34:27.835Z,2.10
2017-10-08T03:36:54.476Z,2.30
2017-10-08T03:39:21.123Z,1.87
2017-10-08T03:41:47.887Z,1.47
2017-10-08T03:44:14.530Z,1.63
2017-10-08T03:46:41.168Z,1.77
2017-10-08T03:49:07.828Z,1.70
2017-10-08T03:51:34.864Z,1.63
2017-10-08T03:54:01.511Z,2.10
2017-10-08T03:56:28.180Z,1.60
2017-10-08T03:58:54.856Z,2.20
2017-10-08T04:01:21.490Z,2.07
2017-10-08T04:03:48.152Z,1.50
2017-10-08T04:06:14.792Z,1.60
2017-10-08T04:08:41.550Z,1.60
2017-10-08T04:11:08.186Z,1.50
2017-10-08T04:13:34.831Z,2.60
2017-10-08T04:16:01.493Z,2.00
2017-10-08T04:18:28.136Z,2.47
2017-10-08T04:20:54.800Z,2.20
2017-10-08T04:23:21.443Z,1.93
2017-10-08T04:25:48.083Z,2.37
2017-10-08T04:28:14.781Z,1.77
2017-10-08T04:30:41.432Z,2.33
2017-10-08T04:33:08.081Z,2.07
2017-10-08T04:35:34.748Z,2.30
2017-10-08T04:38:01.413Z,1.97
2017-10-08T04:40:28.062Z,1.83
2017-10-08T04:42:54.826Z,2.37
2017-10-08T04:45:21.501Z,2.30
2017-10-08T04:47:48.311Z,1.90
2017-10-08T04:50:14.953Z,2.30
2017-10-08T04:52:41.596Z,2.17
2017-10-08T04:55:08.253Z,1.70
2017-10-08T04:57:34.892Z,1.73
2017-10-08T05:00:01.582Z,2.13
2017-10-08T05:02:28.229Z,2.03
2017-10-08T05:04:54.859Z,2.80
2017-10-08T05:07:21.746Z,2.80
2017-10-08T05:09:48.385Z,2.87
2017-10-08T05:12:15.163Z,2.10
2017-10-08T05:14:41.811Z,3.00
2017-10-08T05:17:08.456Z,2.60
2017-10-08T05:19:35.133Z,2.40
2017-10-08T05:22:01.768Z,2.37
2017-10-08T05:24:28.435Z,2.80
2017-10-08T05:26:55.098Z,2.53
2017-10-08T05:29:21.744Z,3.10
2017-10-08T05:31:48.416Z,3.23
2017-10-08T05:34:15.724Z,3.53
2017-10-08T05:36:42.387Z,3.37
2017-10-08T05:39:09.036Z,3.27
2017-10-08T05:41:35.703Z,2.80
2017-10-08T05:44:02.379Z,4.17
2017-10-08T05:46:29.022Z,3.30
2017-10-08T05:48:56.276Z,4.20
2017-10-08T05:51:22.921Z,4.27
2017-10-08T05:53:49.563Z,2.93
2017-10-08T05:56:16.336Z,4.23
2017-10-08T05:58:42.980Z,4.17
2017-10-08T06:01:09.623Z,4.97
2017-10-08T06:03:36.287Z,4.40
2017-10-08T06:06:02.939Z,5.03
2017-10-08T06:08:29.615Z,4.23
2017-10-08T06:10:56.248Z,4.07
2017-10-08T06:13:22.896Z,3.67
2017-10-08T06:15:49.573Z,3.40
2017-10-08T06:18:16.244Z,3.40
2017-10-08T06:20:42.882Z,2.20
2017-10-08T06:23:09.538Z,2.30
2017-10-08T06:25:36.210Z,2.27
2017-10-08T06:28:02.853Z,1.50
2017-10-08T06:30:29.518Z,1.60
2017-10-08T06:32:56.175Z,1.42
2017-10-08T06:35:22.832Z,1.07
2017-10-08T06:37:49.480Z,0.97
2017-10-08T06:40:16.151Z,1.30
2017-10-08T06:42:42.793Z,1.53
2017-10-08T06:45:09.431Z,1.00
2017-10-08T06:47:36.107Z,1.20
2017-10-08T06:50:02.797Z,1.50
2017-10-08T06:52:29.490Z,1.17
2017-10-08T06:54:56.137Z,0.90
2017-10-08T06:57:22.775Z,0.60
2017-10-08T06:59:49.443Z,0.80
2017-10-08T07:02:16.083Z,1.10
2017-10-08T07:04:42.762Z,0.97
2017-10-08T07:07:09.437Z,1.17
2017-10-08T07:09:36.107Z,1.00
2017-10-08T07:12:02.752Z,0.70
2017-10-08T07:14:29.812Z,1.03
2017-10-08T07:16:56.667Z,1.50
2017-10-08T07:19:23.332Z,0.80
2017-10-08T07:21:50.262Z,1.00
2017-10-08T07:24:17.203Z,1.03
2017-10-08T07:26:43.852Z,1.30
2017-10-08T07:29:10.491Z,1.10
2017-10-08T07:31:37.456Z,1.20
2017-10-08T07:34:04.095Z,1.20
2017-10-08T07:36:31.048Z,2.13
2017-10-08T07:38:57.741Z,1.00
2017-10-08T07:41:24.493Z,2.37
2017-10-08T07:43:51.214Z,1.62
2017-10-08T07:46:17.867Z,1.03
2017-10-08T07:48:44.517Z,1.10
2017-10-08T07:51:11.198Z,1.77
2017-10-08T07:53:37.865Z,1.43
2017-10-08T07:56:04.537Z,1.43
2017-10-08T07:58:31.181Z,1.30
2017-10-08T08:00:57.887Z,2.37
2017-10-08T08:03:24.543Z,1.50
2017-10-08T08:05:51.201Z,1.93
2017-10-08T08:08:17.861Z,3.00
2017-10-08T08:10:44.504Z,2.00
2017-10-08T08:13:11.165Z,2.23
2017-10-08T08:15:37.821Z,1.97
2017-10-08T08:18:04.490Z,1.90
2017-10-08T08:20:31.139Z,1.50
2017-10-08T08:22:57.818Z,1.97
2017-10-08T08:25:24.644Z,1.90
2017-10-08T08:27:51.286Z,1.87
2017-10-08T08:30:17.925Z,1.40
2017-10-08T08:32:44.592Z,1.60
2017-10-08T08:35:11.256Z,1.40
2017-10-08T08:37:37.899Z,2.03
2017-10-08T08:40:04.560Z,2.60
2017-10-08T08:42:31.209Z,2.60
2017-10-08T08:44:57.883Z,1.70
2017-10-08T08:47:24.564Z,1.50
2017-10-08T08:49:51.212Z,1.70
2017-10-08T08:52:18.124Z,1.97
2017-10-08T08:54:44.763Z,1.30
2017-10-08T08:57:11.408Z,1.37
2017-10-08T08:59:38.090Z,1.37
2017-10-08T09:02:04.759Z,1.33
2017-10-08T09:04:31.396Z,1.87
2017-10-08T09:06:58.056Z,1.20
2017-10-08T09:09:24.741Z,2.80
2017-10-08T09:11:51.407Z,1.23
2017-10-08T09:14:18.084Z,1.60
2017-10-08T09:16:44.933Z,1.40
2017-10-08T09:19:11.632Z,2.00
2017-10-08T09:21:38.272Z,1.60
2017-10-08T09:24:05.257Z,2.03
2017-10-08T09:26:31.929Z,1.63
2017-10-08T09:28:58.561Z,1.60
2017-10-08T09:31:25.780Z,1.60
2017-10-08T09:33:52.983Z,1.37
2017-10-08T09:36:19.639Z,1.20
2017-10-08T09:38:46.295Z,1.50
2017-10-08T09:41:12.969Z,1.43
2017-10-08T09:43:39.634Z,1.20
2017-10-08T09:46:06.294Z,1.43
2017-10-08T09:48:32.970Z,1.27
2017-10-08T09:50:59.779Z,1.60
2017-10-08T09:53:26.424Z,3.77
2017-10-08T09:55:53.068Z,1.77
2017-10-08T09:58:19.772Z,2.17
2017-10-08T10:00:46.418Z,1.70
2017-10-08T10:03:13.103Z,1.50
2017-10-08T10:05:39.750Z,2.03
2017-10-08T10:08:06.423Z,1.90
2017-10-08T10:10:33.076Z,1.93
2017-10-08T10:12:59.719Z,1.47
2017-10-08T10:15:26.406Z,1.90
2017-10-08T10:17:53.063Z,2.20
2017-10-08T10:20:19.704Z,1.93
2017-10-08T10:22:46.401Z,2.97
2017-10-08T10:25:13.048Z,2.47
2017-10-08T10:27:39.710Z,4.83
2017-10-08T10:30:06.369Z,2.20
2017-10-08T10:32:33.044Z,1.80
2017-10-08T10:34:59.832Z,2.13
2017-10-08T10:37:26.493Z,2.23
2017-10-08T10:39:53.286Z,1.53
2017-10-08T10:42:19.935Z,2.37
2017-10-08T10:44:46.872Z,1.90
2017-10-08T10:47:13.550Z,2.07
2017-10-08T10:49:40.224Z,2.23
2017-10-08T10:52:06.860Z,2.10
2017-10-08T10:54:33.536Z,1.60
2017-10-08T10:57:00.198Z,2.13
2017-10-08T10:59:26.885Z,4.07
2017-10-08T11:01:53.524Z,2.27
2017-10-08T11:04:20.190Z,2.30
2017-10-08T11:06:46.835Z,1.57
2017-10-08T11:09:13.525Z,1.80
2017-10-08T11:11:40.195Z,2.20
2017-10-08T11:14:06.857Z,2.30
2017-10-08T11:16:33.524Z,2.00
2017-10-08T11:19:00.551Z,2.00
2017-10-08T11:21:27.296Z,1.80
2017-10-08T11:23:53.947Z,2.47
2017-10-08T11:26:20.688Z,1.90
2017-10-08T11:28:47.452Z,2.67
2017-10-08T11:31:14.234Z,1.20
2017-10-08T11:33:40.874Z,2.10
2017-10-08T11:36:07.550Z,2.03
2017-10-08T11:38:34.294Z,1.73
2017-10-08T11:41:00.968Z,1.40
2017-10-08T11:43:27.621Z,1.40
2017-10-08T11:45:54.623Z,1.73
2017-10-08T11:48:21.260Z,1.53
2017-10-08T11:50:47.911Z,1.87
2017-10-08T11:53:14.848Z,1.13
2017-10-08T11:55:41.496Z,1.60
2017-10-08T11:58:08.146Z,1.70
2017-10-08T12:00:34.824Z,2.30
2017-10-08T12:03:01.472Z,1.57
2017-10-08T12:05:28.132Z,1.17
2017-10-08T12:07:54.946Z,1.03
2017-10-08T12:10:21.600Z,1.30
2017-10-08T12:12:48.250Z,1.20
2017-10-08T12:15:15.074Z,0.90
2017-10-08T12:17:41.721Z,0.90
2017-10-08T12:20:08.368Z,1.13
2017-10-08T12:22:35.155Z,1.30
2017-10-08T12:25:01.799Z,1.70
2017-10-08T12:27:28.444Z,0.77
2017-10-08T12:29:55.121Z,1.60
2017-10-08T12:32:21.796Z,1.10
2017-10-08T12:34:48.447Z,1.07
2017-10-08T12:37:15.120Z,1.70
2017-10-08T12:39:41.808Z,0.80
2017-10-08T12:42:08.481Z,1.43
2017-10-08T12:44:35.130Z,0.80
2017-10-08T12:47:01.779Z,1.13
2017-10-08T12:49:28.924Z,1.10
2017-10-08T12:51:55.561Z,1.53
2017-10-08T12:54:22.205Z,1.10
2017-10-08T12:56:48.870Z,1.00
2017-10-08T12:59:15.632Z,1.43
2017-10-08T13:01:42.296Z,1.37
2017-10-08T13:04:08.937Z,2.10
2017-10-08T13:06:35.600Z,1.73
2017-10-08T13:09:02.238Z,1.47
2017-10-08T13:11:28.902Z,1.30
2017-10-08T13:13:55.546Z,1.30
2017-10-08T13:16:22.223Z,1.27
2017-10-08T13:18:48.875Z,1.40
2017-10-08T13:21:15.544Z,1.63
2017-10-08T13:23:42.228Z,4.07
2017-10-08T13:26:08.880Z,1.20
2017-10-08T13:28:35.563Z,1.13
2017-10-08T13:31:02.236Z,1.00
2017-10-08T13:33:28.978Z,1.87
2017-10-08T13:35:55.704Z,1.37
2017-10-08T13:38:22.353Z,1.70
2017-10-08T13:40:48.988Z,1.37
2017-10-08T13:43:15.671Z,1.63
2017-10-08T13:45:42.322Z,2.30
2017-10-08T13:48:08.970Z,1.70
2017-10-08T13:50:36.062Z,1.60
2017-10-08T13:53:02.705Z,1.63
2017-10-08T13:55:29.347Z,1.80
2017-10-08T13:57:56.023Z,1.93
2017-10-08T14:00:22.668Z,1.80
2017-10-08T14:02:49.348Z,2.10
2017-10-08T14:05:16.125Z,2.20
2017-10-08T14:07:42.796Z,1.90
2017-10-08T14:10:09.440Z,2.00
2017-10-08T14:12:36.253Z,2.30
2017-10-08T14:15:02.900Z,2.43
2017-10-08T14:17:29.545Z,1.90
2017-10-08T14:19:56.199Z,1.50
2017-10-08T14:22:22.839Z,1.10
2017-10-08T14:24:49.500Z,2.33
2017-10-08T14:27:16.140Z,1.37
2017-10-08T14:29:42.806Z,1.40
2017-10-08T14:32:09.445Z,0.97
2017-10-08T14:34:36.119Z,1.00
2017-10-08T14:37:02.763Z,1.40
2017-10-08T14:39:29.457Z,1.20
2017-10-08T14:41:56.132Z,1.47
2017-10-08T14:44:22.876Z,1.47
2017-10-08T14:46:49.532Z,1.60
2017-10-08T14:49:16.183Z,2.10
2017-10-08T14:51:43.809Z,1.63
2017-10-08T14:54:10.463Z,1.47
2017-10-08T14:56:37.123Z,1.80
2017-10-08T14:59:03.770Z,1.33
2017-10-08T15:01:30.417Z,1.67
2017-10-08T15:03:57.453Z,2.20
2017-10-08T15:06:24.109Z,1.70
2017-10-08T15:08:50.757Z,1.60
2017-10-08T15:11:17.450Z,1.70
2017-10-08T15:13:44.123Z,1.53
2017-10-08T15:16:10.790Z,1.40
2017-10-08T15:18:37.439Z,1.47
2017-10-08T15:21:04.128Z,1.33
2017-10-08T15:23:30.780Z,1.73
2017-10-08T15:25:57.412Z,1.40
2017-10-08T15:28:24.095Z,1.53
2017-10-08T15:30:50.752Z,1.67
2017-10-08T15:33:17.408Z,1.40
2017-10-08T15:35:44.095Z,1.60
2017-10-08T15:38:10.778Z,1.37
2017-10-08T15:40:37.457Z,1.60
2017-10-08T15:43:04.314Z,1.50
2017-10-08T15:45:30.977Z,1.80
2017-10-08T15:47:57.643Z,2.20
2017-10-08T15:50:24.360Z,1.60
2017-10-08T15:52:51.024Z,1.40
2017-10-08T15:55:17.677Z,2.63
2017-10-08T15:57:44.634Z,1.93
2017-10-08T16:00:11.318Z,2.00
2017-10-08T16:02:37.977Z,1.80
2017-10-08T16:05:05.556Z,2.10
2017-10-08T16:07:32.199Z,1.90
2017-10-08T16:09:58.836Z,2.90
2017-10-08T16:12:27.101Z,2.20
2017-10-08T16:14:54.011Z,1.47
2017-10-08T16:17:20.970Z,1.60
2017-10-08T16:19:47.888Z,1.73
2017-10-08T16:22:16.146Z,1.80
2017-10-08T16:24:42.847Z,1.57
2017-10-08T16:27:09.527Z,1.50
2017-10-08T16:29:36.630Z,4.17
2017-10-08T16:32:03.585Z,2.03
2017-10-08T16:34:30.241Z,1.57
2017-10-08T16:36:56.903Z,1.90
2017-10-08T16:39:23.549Z,1.93
2017-10-08T16:41:50.212Z,1.97
2017-10-08T16:44:16.849Z,2.30
2017-10-08T16:46:43.776Z,2.00
2017-10-08T16:49:10.420Z,1.60
2017-10-08T16:51:37.099Z,1.60
2017-10-08T16:54:03.756Z,2.23
2017-10-08T16:56:30.427Z,1.60
2017-10-08T16:58:57.072Z,2.40
2017-10-08T17:01:23.855Z,2.30
2017-10-08T17:03:50.498Z,2.10
2017-10-08T17:06:17.143Z,1.97
2017-10-08T17:08:43.824Z,1.90
2017-10-08T17:11:10.479Z,1.73
2017-10-08T17:13:37.189Z,3.50
2017-10-08T17:16:03.859Z,3.00
2017-10-08T17:18:30.529Z,2.20
2017-10-08T17:20:57.165Z,2.00
2017-10-08T17:23:24.240Z,1.90
2017-10-08T17:25:50.882Z,2.57
2017-10-08T17:28:17.836Z,2.53
2017-10-08T17:30:45.030Z,2.00
2017-10-08T17:33:12.367Z,2.60
2017-10-08T17:35:39.073Z,2.83
2017-10-08T17:38:06.248Z,2.43
2017-10-08T17:40:32.946Z,1.67
2017-10-08T17:42:59.595Z,3.17
2017-10-08T17:45:26.273Z,2.40
2017-10-08T17:47:53.180Z,5.00
2017-10-08T17:50:19.820Z,1.87
2017-10-08T17:52:46.489Z,1.87
2017-10-08T17:55:13.167Z,3.80
2017-10-08T17:57:39.817Z,1.60
2017-10-08T18:00:06.481Z,1.30
2017-10-08T18:02:33.137Z,1.60
2017-10-08T18:04:59.798Z,1.47
2017-10-08T18:07:26.464Z,1.83
2017-10-08T18:09:53.116Z,2.60
2017-10-08T18:12:19.797Z,2.10
2017-10-08T18:14:46.450Z,2.07
2017-10-08T18:17:13.135Z,2.67
2017-10-08T18:19:39.820Z,2.40
2017-10-08T18:22:06.500Z,2.40
2017-10-08T18:24:33.144Z,2.50
2017-10-08T18:26:59.925Z,1.80
2017-10-08T18:29:26.676Z,1.90
2017-10-08T18:31:53.337Z,2.20
2017-10-08T18:34:20.013Z,2.37
2017-10-08T18:36:46.884Z,2.00
2017-10-08T18:39:13.598Z,1.83
2017-10-08T18:41:40.547Z,2.47
2017-10-08T18:44:07.591Z,2.60
2017-10-08T18:46:34.300Z,2.17
2017-10-08T18:49:01.027Z,2.83
2017-10-08T18:51:28.399Z,2.80
2017-10-08T18:53:55.573Z,2.30
2017-10-08T18:56:22.394Z,2.80
2017-10-08T18:58:49.079Z,1.77
2017-10-08T19:01:16.892Z,2.60
2017-10-08T19:03:44.602Z,1.80
2017-10-08T19:06:13.343Z,2.17
2017-10-08T19:08:40.326Z,2.47
2017-10-08T19:11:07.189Z,2.40
2017-10-08T19:13:33.922Z,2.27
2017-10-08T19:16:01.028Z,2.60
2017-10-08T19:18:27.802Z,2.13
2017-10-08T19:20:54.544Z,2.80
2017-10-08T19:23:21.282Z,3.00
2017-10-08T19:25:48.009Z,3.07
2017-10-08T19:28:14.789Z,2.40
2017-10-08T19:30:41.532Z,3.30
2017-10-08T19:33:08.223Z,2.27
2017-10-08T19:35:34.950Z,2.67
2017-10-08T19:38:02.006Z,3.60
2017-10-08T19:47:11.284Z,3.07
2017-10-08T19:49:38.844Z,3.77
2017-10-08T19:52:05.979Z,3.27
2017-10-08T19:54:32.828Z,2.17
2017-10-08T19:56:59.509Z,3.10
2017-10-08T19:59:26.219Z,3.23
2017-10-08T20:01:52.886Z,3.10
2017-10-08T20:04:19.546Z,4.33
2017-10-08T20:06:46.317Z,3.30
2017-10-08T20:09:13.015Z,3.23
2017-10-08T20:11:39.665Z,2.30
2017-10-08T20:14:06.313Z,2.60
2017-10-08T20:16:32.983Z,2.50
2017-10-08T20:18:59.630Z,2.60
2017-10-08T20:21:26.285Z,2.23
2017-10-08T20:23:52.944Z,1.97
2017-10-08T20:26:19.589Z,2.93
2017-10-08T20:28:46.245Z,2.43
2017-10-08T20:31:12.929Z,2.57
2017-10-08T20:33:39.595Z,2.03
2017-10-08T20:36:06.287Z,2.50
2017-10-08T20:38:33.174Z,2.23
2017-10-08T20:40:59.819Z,1.83
2017-10-08T20:43:26.480Z,2.30
2017-10-08T20:45:53.151Z,1.53
2017-10-08T20:48:20.151Z,1.83
2017-10-08T20:50:46.796Z,1.90
2017-10-08T20:53:13.467Z,2.50
2017-10-08T20:55:40.139Z,2.40
2017-10-08T20:58:06.820Z,2.57
2017-10-08T21:00:33.464Z,2.67
2017-10-08T21:03:00.116Z,2.43
2017-10-08T21:05:26.797Z,2.00
2017-10-08T21:07:53.462Z,2.20
2017-10-08T21:10:20.127Z,1.73
2017-10-08T21:12:46.772Z,2.83
2017-10-08T21:15:13.443Z,1.90
2017-10-08T21:17:40.084Z,1.80
2017-10-08T21:20:06.752Z,1.90
2017-10-08T21:22:33.430Z,1.83
2017-10-08T21:25:00.358Z,1.80
2017-10-08T21:27:27.350Z,2.50
2017-10-08T21:29:54.197Z,2.13
2017-10-08T21:32:20.860Z,1.80
2017-10-08T21:34:47.539Z,1.70
2017-10-08T21:37:14.173Z,1.67
2017-10-08T21:39:41.142Z,1.97
2017-10-08T21:42:07.801Z,1.80
2017-10-08T21:44:34.451Z,2.20
2017-10-08T21:47:01.149Z,2.17
2017-10-08T21:49:27.837Z,2.33
2017-10-08T21:51:54.494Z,2.37
2017-10-08T21:54:21.473Z,2.80
2017-10-08T21:56:48.168Z,3.23
2017-10-08T21:59:14.808Z,3.43
2017-10-08T22:01:41.485Z,3.90
2017-10-08T22:04:08.163Z,3.80
2017-10-08T22:06:34.825Z,3.57
2017-10-08T22:09:01.587Z,4.33
2017-10-08T22:11:28.248Z,4.67
2017-10-08T22:13:54.887Z,5.20
2017-10-08T22:16:21.780Z,4.70
2017-10-08T22:18:48.428Z,5.80
2017-10-08T22:21:15.072Z,3.40
2017-10-08T22:23:41.735Z,4.37
2017-10-08T22:26:08.388Z,5.10
2017-10-08T22:28:35.056Z,5.60
2017-10-08T22:31:01.853Z,5.10
2017-10-08T22:33:28.496Z,5.90
2017-10-08T22:35:55.156Z,4.33
2017-10-08T22:38:21.833Z,4.30
2017-10-08T22:40:48.476Z,5.13
2017-10-08T22:43:15.153Z,5.00
2017-10-08T22:45:41.824Z,5.23
2017-10-08T22:48:08.617Z,4.50
2017-10-08T22:50:35.263Z,5.67
2017-10-08T22:53:01.910Z,4.73
2017-10-08T22:55:28.596Z,3.87
2017-10-08T22:57:55.241Z,4.30
2017-10-08T23:00:21.884Z,4.33
2017-10-08T23:02:48.769Z,4.50
2017-10-08T23:05:15.418Z,4.20
2017-10-08T23:07:42.074Z,3.90
2017-10-08T23:10:08.746Z,3.40
2017-10-08T23:12:35.381Z,3.80
2017-10-08T23:15:02.075Z,3.77
2017-10-08T23:17:28.717Z,3.17
2017-10-08T23:19:55.360Z,3.13
2017-10-08T23:22:22.031Z,2.50
2017-10-08T23:24:48.695Z,2.40
2017-10-08T23:27:15.361Z,1.93
2017-10-08T23:29:42.009Z,2.03
2017-10-08T23:32:08.772Z,2.23
2017-10-08T23:34:35.567Z,2.10
2017-10-08T23:37:02.433Z,1.97
2017-10-08T23:39:29.100Z,2.00
2017-10-08T23:41:55.770Z,2.30
2017-10-08T23:44:22.451Z,2.13
2017-10-08T23:46:49.120Z,2.17
2017-10-08T23:49:16.072Z,2.10
2017-10-08T23:51:42.998Z,2.40
2017-10-08T23:54:09.644Z,2.00
2017-10-08T23:56:36.592Z,2.30
2017-10-08T23:59:03.349Z,1.97
